createdAt,value
2023-05-06T00:00:36.716Z,4.30
2023-05-06T00:01:36.724Z,4.30
2023-05-06T00:02:36.762Z,4.40
2023-05-06T00:03:36.836Z,4.50
2023-05-06T00:04:36.697Z,4.60
2023-05-06T00:05:36.662Z,4.10
2023-05-06T00:06:36.650Z,4.50
2023-05-06T00:07:36.638Z,5.30
2023-05-06T00:08:36.669Z,4.70
2023-05-06T00:09:36.608Z,5.20
2023-05-06T00:10:36.593Z,4.80
2023-05-06T00:11:36.573Z,5.00
2023-05-06T00:12:36.595Z,4.80
2023-05-06T00:13:36.554Z,4.80
2023-05-06T00:14:36.547Z,5.10
2023-05-06T00:15:36.543Z,5.10
2023-05-06T00:16:36.565Z,5.00
2023-05-06T00:17:36.581Z,4.90
2023-05-06T00:18:36.504Z,4.80
2023-05-06T00:19:36.463Z,5.20
2023-05-06T00:20:36.479Z,5.00
2023-05-06T00:21:36.448Z,4.50
2023-05-06T00:22:36.428Z,4.60
2023-05-06T00:23:36.440Z,4.70
2023-05-06T00:24:36.403Z,4.60
2023-05-06T00:25:36.386Z,5.10
2023-05-06T00:26:36.382Z,5.10
2023-05-06T00:27:36.383Z,4.80
2023-05-06T00:28:36.357Z,4.10
2023-05-06T00:29:36.335Z,4.50
2023-05-06T00:30:36.326Z,4.60
2023-05-06T00:31:36.363Z,4.80
2023-05-06T00:32:36.328Z,3.90
2023-05-06T00:33:36.289Z,4.30
2023-05-06T00:34:36.307Z,4.20
2023-05-06T00:35:36.264Z,4.30
2023-05-06T00:36:36.280Z,4.60
2023-05-06T00:37:36.250Z,4.60
2023-05-06T00:38:36.227Z,5.20
2023-05-06T00:39:36.238Z,4.40
2023-05-06T00:40:36.198Z,4.70
2023-05-06T00:41:36.197Z,4.60
2023-05-06T00:42:36.173Z,4.60
2023-05-06T00:43:36.160Z,4.60
2023-05-06T00:44:36.162Z,4.10
2023-05-06T00:45:36.151Z,4.60
2023-05-06T00:46:36.117Z,4.90
2023-05-06T00:47:36.160Z,4.00
2023-05-06T00:48:36.132Z,4.40
2023-05-06T00:49:36.089Z,4.30
2023-05-06T00:50:36.100Z,4.60
2023-05-06T00:51:36.078Z,4.80
2023-05-06T00:52:36.065Z,4.40
2023-05-06T00:53:36.029Z,3.90
2023-05-06T00:54:36.042Z,4.30
2023-05-06T00:55:36.005Z,4.30
2023-05-06T00:56:35.992Z,4.50
2023-05-06T00:57:35.983Z,4.20
2023-05-06T00:58:35.979Z,3.80
2023-05-06T00:59:35.941Z,4.00
2023-05-06T01:00:35.998Z,4.40
2023-05-06T01:01:35.978Z,4.10
2023-05-06T01:02:46.159Z,4.00
2023-05-06T01:03:36.017Z,4.40
2023-05-06T01:04:35.964Z,4.70
2023-05-06T01:05:35.876Z,4.40
2023-05-06T01:06:35.858Z,4.20
2023-05-06T01:07:35.855Z,4.20
2023-05-06T01:08:35.833Z,4.40
2023-05-06T01:09:35.833Z,4.30
2023-05-06T01:10:35.831Z,4.20
2023-05-06T01:11:35.848Z,3.80
2023-05-06T01:12:35.845Z,4.10
2023-05-06T01:13:35.781Z,4.20
2023-05-06T01:14:35.781Z,4.30
2023-05-06T01:15:35.752Z,4.50
2023-05-06T01:16:35.757Z,4.20
2023-05-06T01:17:35.771Z,4.50
2023-05-06T01:18:35.727Z,3.90
2023-05-06T01:19:35.709Z,4.50
2023-05-06T01:20:35.734Z,4.40
2023-05-06T01:21:35.711Z,4.50
2023-05-06T01:22:35.681Z,3.90
2023-05-06T01:23:35.675Z,4.20
2023-05-06T01:24:35.645Z,4.20
2023-05-06T01:25:35.636Z,4.00
2023-05-06T01:26:35.613Z,4.00
2023-05-06T01:27:35.605Z,4.40
2023-05-06T01:28:35.578Z,4.50
2023-05-06T01:29:35.583Z,3.70
2023-05-06T01:30:35.553Z,4.00
2023-05-06T01:31:35.574Z,4.30
2023-05-06T01:32:35.573Z,3.90
2023-05-06T01:33:35.523Z,4.10
2023-05-06T01:34:35.516Z,4.10
2023-05-06T01:35:35.494Z,3.90
2023-05-06T01:36:35.477Z,4.00
2023-05-06T01:37:35.473Z,4.10
2023-05-06T01:38:35.451Z,3.90
2023-05-06T01:39:35.453Z,3.80
2023-05-06T01:40:35.429Z,3.90
2023-05-06T01:41:35.438Z,3.90
2023-05-06T01:42:35.416Z,3.80
2023-05-06T01:43:35.398Z,4.10
2023-05-06T01:44:35.398Z,3.80
2023-05-06T01:45:35.383Z,3.70
2023-05-06T01:46:35.471Z,4.20
2023-05-06T01:47:35.396Z,4.00
2023-05-06T01:48:35.329Z,4.20
2023-05-06T01:49:35.329Z,4.30
2023-05-06T01:50:35.326Z,4.30
2023-05-06T01:51:35.344Z,4.10
2023-05-06T01:52:35.289Z,4.00
2023-05-06T01:53:35.280Z,4.10
2023-05-06T01:54:35.257Z,3.90
2023-05-06T01:55:35.251Z,3.70
2023-05-06T01:56:35.234Z,4.00
2023-05-06T01:57:35.216Z,3.80
2023-05-06T01:58:35.213Z,3.80
2023-05-06T01:59:35.207Z,4.30
2023-05-06T02:00:35.481Z,3.80
2023-05-06T02:01:35.206Z,4.00
2023-05-06T02:02:35.234Z,3.90
2023-05-06T02:03:35.204Z,4.00
2023-05-06T02:04:35.134Z,4.00
2023-05-06T02:05:35.151Z,3.90
2023-05-06T02:06:35.106Z,4.00
2023-05-06T02:07:35.100Z,4.00
2023-05-06T02:08:35.087Z,4.20
2023-05-06T02:09:35.059Z,3.90
2023-05-06T02:10:35.084Z,3.60
2023-05-06T02:11:35.105Z,3.80
2023-05-06T02:12:35.114Z,3.70
2023-05-06T02:13:35.078Z,3.90
2023-05-06T02:14:35.010Z,3.60
2023-05-06T02:15:35.032Z,3.70
2023-05-06T02:16:35.166Z,3.80
2023-05-06T02:17:35.011Z,3.70
2023-05-06T02:18:34.961Z,3.50
2023-05-06T02:19:34.964Z,3.60
2023-05-06T02:20:34.948Z,4.00
2023-05-06T02:21:34.926Z,3.30
2023-05-06T02:22:34.894Z,3.50
2023-05-06T02:23:34.905Z,3.40
2023-05-06T02:24:34.880Z,3.70
2023-05-06T02:25:34.874Z,3.50
2023-05-06T02:26:34.867Z,3.50
2023-05-06T02:27:34.907Z,3.40
2023-05-06T02:41:27.256Z,3.60
2023-05-06T02:49:42.939Z,3.40
2023-05-06T02:49:48.950Z,4.10
2023-05-06T02:50:49.126Z,3.70
2023-05-06T02:51:48.805Z,3.70
2023-05-06T02:54:36.421Z,3.80
2023-05-06T02:55:39.556Z,3.90
2023-05-06T02:57:00.846Z,3.80
2023-05-06T03:14:41.782Z,4.00
2023-05-06T04:25:13.387Z,3.50
2023-05-06T04:25:19.591Z,3.60
2023-05-06T04:26:19.254Z,3.50
2023-05-06T04:27:19.192Z,3.30
2023-05-06T04:28:19.216Z,3.90
2023-05-06T04:29:19.231Z,3.90
2023-05-06T04:30:19.232Z,4.40
2023-05-06T04:31:19.153Z,3.80
2023-05-06T04:32:19.483Z,3.40
2023-05-06T04:34:57.974Z,3.30
2023-05-06T04:36:59.136Z,3.70
2023-05-06T04:37:59.632Z,3.80
2023-05-06T04:38:59.402Z,3.50
2023-05-06T04:41:33.261Z,3.40
2023-05-06T04:42:44.998Z,3.70
2023-05-06T04:43:34.199Z,3.80
2023-05-06T04:45:59.756Z,3.60
2023-05-06T04:47:00.554Z,3.50
2023-05-06T04:48:00.399Z,3.50
2023-05-06T04:49:00.287Z,3.60
2023-05-06T04:50:00.299Z,3.40
2023-05-06T04:51:12.682Z,3.50
2023-05-06T04:52:00.347Z,3.20
2023-05-06T04:53:00.233Z,3.20
2023-05-06T04:54:00.208Z,3.00
2023-05-06T04:55:00.255Z,3.20
2023-05-06T04:56:00.165Z,3.00
2023-05-06T04:57:00.781Z,2.80
2023-05-06T04:58:00.199Z,3.30
2023-05-06T04:59:10.267Z,3.10
2023-05-06T05:00:00.324Z,3.80
2023-05-06T05:01:00.253Z,3.10
2023-05-06T05:02:00.224Z,2.90
2023-05-06T05:03:00.300Z,3.50
2023-05-06T05:04:00.619Z,3.00
2023-05-06T05:05:00.142Z,3.00
2023-05-06T05:06:00.070Z,3.30
2023-05-06T05:07:00.243Z,3.10
2023-05-06T05:08:00.115Z,3.10
2023-05-06T05:09:00.019Z,3.10
2023-05-06T05:10:00.014Z,2.90
2023-05-06T05:11:10.411Z,3.10
2023-05-06T05:12:00.064Z,3.40
2023-05-06T05:13:00.130Z,3.20
2023-05-06T05:14:01.892Z,3.20
2023-05-06T05:14:59.933Z,2.90
2023-05-06T05:15:59.905Z,2.90
2023-05-06T05:16:59.980Z,3.00
2023-05-06T05:17:59.944Z,3.10
2023-05-06T05:19:01.574Z,3.00
2023-05-06T05:19:59.902Z,3.10
2023-05-06T05:20:59.880Z,2.90
2023-05-06T05:21:59.881Z,2.60
2023-05-06T05:22:59.799Z,2.70
2023-05-06T05:23:59.821Z,2.80
2023-05-06T05:24:59.803Z,2.60
2023-05-06T05:26:11.857Z,3.00
2023-05-06T05:27:07.657Z,2.30
2023-05-06T05:27:59.855Z,2.60
2023-05-06T05:28:59.827Z,2.30
2023-05-06T05:29:59.737Z,2.50
2023-05-06T05:30:59.887Z,2.60
2023-05-06T05:31:59.668Z,2.60
2023-05-06T05:32:59.746Z,2.70
2023-05-06T05:33:59.626Z,3.10
2023-05-06T05:34:59.644Z,2.30
2023-05-06T05:35:59.630Z,2.50
2023-05-06T05:36:59.622Z,2.10
2023-05-06T05:37:59.578Z,2.30
2023-05-06T05:38:59.587Z,2.60
2023-05-06T05:39:59.564Z,2.80
2023-05-06T05:40:59.594Z,2.30
2023-05-06T05:41:59.563Z,2.60
2023-05-06T05:42:59.573Z,2.50
2023-05-06T05:43:59.514Z,2.60
2023-05-06T05:44:59.536Z,2.80
2023-05-06T05:45:59.499Z,2.80
2023-05-06T05:46:59.493Z,2.50
2023-05-06T05:47:59.548Z,2.40
2023-05-06T05:48:59.459Z,2.70
2023-05-06T05:49:59.426Z,2.70
2023-05-06T05:50:59.430Z,2.60
2023-05-06T05:51:59.435Z,2.60
2023-05-06T05:52:59.385Z,2.80
2023-05-06T05:53:59.375Z,2.80
2023-05-06T05:54:59.409Z,2.60
2023-05-06T05:55:59.367Z,2.60
2023-05-06T05:56:59.351Z,2.70
2023-05-06T05:57:59.328Z,2.90
2023-05-06T05:58:59.320Z,2.60
2023-05-06T05:59:59.292Z,2.80
2023-05-06T06:00:59.389Z,3.10
2023-05-06T06:01:59.292Z,3.10
2023-05-06T06:02:59.426Z,3.40
2023-05-06T06:03:59.507Z,3.40
2023-05-06T06:04:59.285Z,3.60
2023-05-06T06:05:59.253Z,3.90
2023-05-06T06:06:59.219Z,3.50
2023-05-06T06:07:59.563Z,4.00
2023-05-06T06:08:59.209Z,3.40
2023-05-06T06:09:59.187Z,3.60
2023-05-06T06:10:59.216Z,3.50
2023-05-06T06:11:59.175Z,3.70
2023-05-06T06:12:59.169Z,3.90
2023-05-06T06:13:59.150Z,3.90
2023-05-06T06:14:59.126Z,3.70
2023-05-06T06:15:59.192Z,3.50
2023-05-06T06:16:59.073Z,3.80
2023-05-06T06:17:59.175Z,3.60
2023-05-06T06:18:59.072Z,4.10
2023-05-06T06:19:59.056Z,3.80
2023-05-06T06:20:59.029Z,4.00
2023-05-06T06:21:59.562Z,3.80
2023-05-06T06:22:59.000Z,4.40
2023-05-06T06:23:58.981Z,4.60
2023-05-06T06:24:58.984Z,4.60
2023-05-06T06:25:59.004Z,5.60
2023-05-06T06:26:58.958Z,6.10
2023-05-06T06:27:58.947Z,6.40
2023-05-06T06:28:58.945Z,6.00
2023-05-06T06:29:58.907Z,6.30
2023-05-06T06:30:58.906Z,5.80
2023-05-06T06:31:58.973Z,5.20
2023-05-06T06:32:58.913Z,4.70
2023-05-06T06:33:58.877Z,4.50
2023-05-06T06:34:58.871Z,3.80
2023-05-06T06:35:58.828Z,3.90
2023-05-06T06:36:58.840Z,3.80
2023-05-06T06:37:58.819Z,4.30
2023-05-06T06:38:58.820Z,4.20
2023-05-06T06:39:58.767Z,4.30
2023-05-06T06:40:58.777Z,4.10
2023-05-06T06:41:58.758Z,4.20
2023-05-06T06:42:58.780Z,4.20
2023-05-06T06:43:58.724Z,4.50
2023-05-06T06:44:58.716Z,4.20
2023-05-06T06:45:58.841Z,4.30
2023-05-06T06:46:58.701Z,4.30
2023-05-06T06:47:58.665Z,4.50
2023-05-06T06:48:58.645Z,4.30
2023-05-06T06:49:58.652Z,4.70
2023-05-06T06:50:58.660Z,5.00
2023-05-06T06:51:58.627Z,4.90
2023-05-06T06:52:58.607Z,5.00
2023-05-06T06:53:58.603Z,5.00
2023-05-06T06:54:58.642Z,4.80
2023-05-06T06:55:58.590Z,5.40
2023-05-06T06:56:58.564Z,4.80
2023-05-06T06:57:58.545Z,4.80
2023-05-06T06:58:58.562Z,5.30
2023-05-06T06:59:58.516Z,6.20
2023-05-06T07:00:58.548Z,6.20
2023-05-06T07:01:58.503Z,6.20
2023-05-06T07:02:58.502Z,6.60
2023-05-06T07:03:58.488Z,6.00
2023-05-06T07:04:58.460Z,6.00
2023-05-06T07:05:58.443Z,6.60
2023-05-06T07:06:58.408Z,6.50
2023-05-06T07:07:58.414Z,8.10
2023-05-06T07:08:58.388Z,33.00
2023-05-06T07:09:58.366Z,28.60
2023-05-06T07:10:58.409Z,24.60
2023-05-06T07:11:58.389Z,37.90
2023-05-06T07:12:58.400Z,19.00
2023-05-06T07:13:58.320Z,22.60
2023-05-06T07:14:58.330Z,19.50
2023-05-06T07:15:58.317Z,13.80
2023-05-06T07:16:58.283Z,11.00
2023-05-06T07:17:58.341Z,9.80
2023-05-06T07:18:58.249Z,9.50
2023-05-06T07:19:58.249Z,7.30
2023-05-06T07:20:58.248Z,8.50
2023-05-06T07:21:58.229Z,8.90
2023-05-06T07:22:58.224Z,8.90
2023-05-06T07:23:58.179Z,9.40
2023-05-06T07:24:58.175Z,9.20
2023-05-06T07:25:58.149Z,9.30
2023-05-06T07:26:58.174Z,8.90
2023-05-06T07:27:58.139Z,9.50
2023-05-06T07:28:58.134Z,9.60
2023-05-06T07:29:58.123Z,10.00
2023-05-06T07:30:58.115Z,9.00
2023-05-06T07:31:58.083Z,9.30
2023-05-06T07:32:58.138Z,9.70
2023-05-06T07:33:58.061Z,9.40
2023-05-06T07:34:58.052Z,9.60
2023-05-06T07:35:58.022Z,9.60
2023-05-06T07:36:58.033Z,9.50
2023-05-06T07:37:58.010Z,9.70
2023-05-06T07:38:58.011Z,9.60
2023-05-06T07:39:57.976Z,9.30
2023-05-06T07:40:57.970Z,10.10
2023-05-06T07:41:57.948Z,9.80
2023-05-06T07:42:57.936Z,9.80
2023-05-06T07:43:57.928Z,10.90
2023-05-06T07:44:57.924Z,11.20
2023-05-06T07:45:57.998Z,11.60
2023-05-06T07:46:58.101Z,10.90
2023-05-06T07:47:57.906Z,12.90
2023-05-06T07:48:57.890Z,12.00
2023-05-06T07:49:57.866Z,10.90
2023-05-06T07:50:57.840Z,8.60
2023-05-06T07:51:57.856Z,9.20
2023-05-06T07:52:57.809Z,8.70
2023-05-06T07:53:57.806Z,8.60
2023-05-06T07:54:57.803Z,10.10
2023-05-06T07:55:57.770Z,9.20
2023-05-06T07:56:57.791Z,10.10
2023-05-06T07:57:57.732Z,10.10
2023-05-06T07:58:57.744Z,9.80
2023-05-06T07:59:57.748Z,10.20
2023-05-06T08:00:57.719Z,9.90
2023-05-06T08:01:57.690Z,7.90
2023-05-06T08:02:57.899Z,8.50
2023-05-06T08:03:57.908Z,8.10
2023-05-06T08:04:57.738Z,7.80
2023-05-06T08:05:57.689Z,8.10
2023-05-06T08:06:57.666Z,7.80
2023-05-06T08:07:57.633Z,7.50
2023-05-06T08:08:57.613Z,8.10
2023-05-06T08:09:57.586Z,8.00
2023-05-06T08:10:57.571Z,8.20
2023-05-06T08:11:57.567Z,7.50
2023-05-06T08:12:57.581Z,7.60
2023-05-06T08:13:57.554Z,6.80
2023-05-06T08:14:57.575Z,7.40
2023-05-06T08:15:57.517Z,7.30
2023-05-06T08:16:57.511Z,7.40
2023-05-06T08:17:58.797Z,7.00
2023-05-06T08:18:57.489Z,6.50
2023-05-06T08:19:57.459Z,5.70
2023-05-06T08:20:57.481Z,7.20
2023-05-06T08:21:57.510Z,6.90
2023-05-06T08:22:57.452Z,6.70
2023-05-06T08:23:57.416Z,6.50
2023-05-06T08:24:57.404Z,7.10
2023-05-06T08:25:57.403Z,6.70
2023-05-06T08:26:57.406Z,7.20
2023-05-06T08:27:57.384Z,6.80
2023-05-06T08:28:57.353Z,6.80
2023-05-06T08:30:03.846Z,6.90
2023-05-06T08:30:57.318Z,7.20
2023-05-06T08:31:57.418Z,6.80
2023-05-06T08:32:57.343Z,6.50
2023-05-06T08:33:57.288Z,6.80
2023-05-06T08:34:57.299Z,6.90
2023-05-06T08:35:57.260Z,6.40
2023-05-06T08:36:57.256Z,6.40
2023-05-06T08:37:57.244Z,6.80
2023-05-06T08:38:57.230Z,6.70
2023-05-06T08:39:59.286Z,6.20
2023-05-06T08:40:57.202Z,6.90
2023-05-06T08:41:57.192Z,6.20
2023-05-06T08:42:57.173Z,5.60
2023-05-06T08:43:57.189Z,6.10
2023-05-06T08:44:57.169Z,6.20
2023-05-06T08:45:57.254Z,5.20
2023-05-06T08:46:57.135Z,6.20
2023-05-06T08:47:57.120Z,5.30
2023-05-06T08:48:57.092Z,5.40
2023-05-06T08:49:57.082Z,5.70
2023-05-06T08:50:57.069Z,5.50
2023-05-06T08:51:57.063Z,5.60
2023-05-06T08:52:57.040Z,5.10
2023-05-06T08:53:57.032Z,5.60
2023-05-06T08:54:57.041Z,5.50
2023-05-06T08:55:57.003Z,5.50
2023-05-06T08:56:56.985Z,5.10
2023-05-06T08:57:56.990Z,4.90
2023-05-06T08:58:56.997Z,5.10
2023-05-06T08:59:56.951Z,5.20
2023-05-06T09:00:57.021Z,5.00
2023-05-06T09:01:56.967Z,5.00
2023-05-06T09:02:57.047Z,4.90
2023-05-06T09:03:56.921Z,4.90
2023-05-06T09:04:56.943Z,5.10
2023-05-06T09:05:56.885Z,4.80
2023-05-06T09:06:56.861Z,4.80
2023-05-06T09:07:56.856Z,4.60
2023-05-06T09:08:56.861Z,4.50
2023-05-06T09:09:56.850Z,4.60
2023-05-06T09:10:56.816Z,4.20
2023-05-06T09:11:56.807Z,4.40
2023-05-06T09:12:56.807Z,3.90
2023-05-06T09:13:56.776Z,4.40
2023-05-06T09:14:56.767Z,4.20
2023-05-06T09:15:56.754Z,4.50
2023-05-06T09:16:56.781Z,4.20
2023-05-06T09:17:56.765Z,4.60
2023-05-06T09:18:56.729Z,4.50
2023-05-06T09:19:56.688Z,4.10
2023-05-06T09:20:57.740Z,3.70
2023-05-06T09:21:56.683Z,3.80
2023-05-06T09:22:56.659Z,3.90
2023-05-06T09:23:56.646Z,3.90
2023-05-06T09:24:56.725Z,3.80
2023-05-06T09:25:56.633Z,3.70
2023-05-06T09:26:56.625Z,3.40
2023-05-06T09:27:56.669Z,3.40
2023-05-06T09:28:56.583Z,3.40
2023-05-06T09:29:56.570Z,3.40
2023-05-06T09:30:56.617Z,3.60
2023-05-06T09:31:56.546Z,3.10
2023-05-06T09:32:56.628Z,3.20
2023-05-06T09:33:56.514Z,3.40
2023-05-06T09:34:56.518Z,3.00
2023-05-06T09:35:56.498Z,3.10
2023-05-06T09:36:56.490Z,3.00
2023-05-06T09:37:56.489Z,3.20
2023-05-06T09:38:56.515Z,3.30
2023-05-06T09:39:56.433Z,3.20
2023-05-06T09:40:56.438Z,3.50
2023-05-06T09:41:56.436Z,3.40
2023-05-06T09:42:56.409Z,3.10
2023-05-06T09:43:56.393Z,3.10
2023-05-06T09:44:56.394Z,3.20
2023-05-06T09:45:56.382Z,2.80
2023-05-06T09:46:56.358Z,3.30
2023-05-06T09:47:56.400Z,3.50
2023-05-06T09:48:56.329Z,3.40
2023-05-06T09:49:56.307Z,2.70
2023-05-06T09:50:56.294Z,2.60
2023-05-06T09:51:56.297Z,2.90
2023-05-06T09:52:56.271Z,2.40
2023-05-06T09:53:56.287Z,2.70
2023-05-06T09:54:56.242Z,2.10
2023-05-06T09:55:56.224Z,2.50
2023-05-06T09:56:56.233Z,2.60
2023-05-06T09:57:56.205Z,2.90
2023-05-06T09:58:56.181Z,3.20
2023-05-06T09:59:56.168Z,2.90
2023-05-06T10:00:56.160Z,2.50
2023-05-06T10:01:56.188Z,3.20
2023-05-06T10:02:56.237Z,3.30
2023-05-06T10:03:56.269Z,3.10
2023-05-06T10:04:56.295Z,2.80
2023-05-06T10:05:56.095Z,2.60
2023-05-06T10:06:56.090Z,2.60
2023-05-06T10:07:56.074Z,2.80
2023-05-06T10:08:56.057Z,2.70
2023-05-06T10:09:56.040Z,2.80
2023-05-06T10:10:56.040Z,2.60
2023-05-06T10:11:56.018Z,2.50
2023-05-06T10:12:56.045Z,2.70
2023-05-06T10:13:55.988Z,2.20
2023-05-06T10:14:56.011Z,2.80
2023-05-06T10:15:56.003Z,2.80
2023-05-06T10:16:55.963Z,3.00
2023-05-06T10:17:55.989Z,3.30
2023-05-06T10:18:55.966Z,3.40
2023-05-06T10:19:55.901Z,3.20
2023-05-06T10:20:55.917Z,3.10
2023-05-06T10:21:55.878Z,3.10
2023-05-06T10:22:56.047Z,3.30
2023-05-06T10:23:55.866Z,3.20
2023-05-06T10:24:55.841Z,3.20
2023-05-06T10:25:55.827Z,3.20
2023-05-06T10:26:55.808Z,3.90
2023-05-06T10:27:55.815Z,3.10
2023-05-06T10:28:55.782Z,3.30
2023-05-06T10:29:55.757Z,3.50
2023-05-06T10:30:55.753Z,3.20
2023-05-06T10:31:55.793Z,3.40
2023-05-06T10:32:55.790Z,4.00
2023-05-06T10:33:55.716Z,2.70
2023-05-06T10:34:55.721Z,2.70
2023-05-06T10:35:55.697Z,2.90
2023-05-06T10:36:55.672Z,2.60
2023-05-06T10:37:55.698Z,2.90
2023-05-06T10:38:55.637Z,3.40
2023-05-06T10:39:55.613Z,2.70
2023-05-06T10:40:55.624Z,2.60
2023-05-06T10:41:55.592Z,3.00
2023-05-06T10:42:55.590Z,2.60
2023-05-06T10:43:55.589Z,3.10
2023-05-06T10:44:55.557Z,2.40
2023-05-06T10:45:55.575Z,2.60
2023-05-06T10:46:55.548Z,2.40
2023-05-06T10:47:55.574Z,2.70
2023-05-06T10:48:55.505Z,2.70
2023-05-06T10:49:55.480Z,2.60
2023-05-06T10:50:55.478Z,2.70
2023-05-06T10:51:55.456Z,2.40
2023-05-06T10:52:55.452Z,2.30
2023-05-06T10:53:55.436Z,2.10
2023-05-06T10:54:55.427Z,1.70
2023-05-06T10:55:55.413Z,2.20
2023-05-06T10:56:55.429Z,2.00
2023-05-06T10:57:55.396Z,2.10
2023-05-06T10:58:55.379Z,2.10
2023-05-06T10:59:55.400Z,2.20
2023-05-06T11:00:55.382Z,2.40
2023-05-06T11:01:55.323Z,2.50
2023-05-06T11:02:55.408Z,2.20
2023-05-06T11:03:55.333Z,2.70
2023-05-06T11:04:55.277Z,2.60
2023-05-06T11:05:55.275Z,2.00
2023-05-06T11:06:55.357Z,2.40
2023-05-06T11:07:55.248Z,2.30
2023-05-06T11:08:55.241Z,2.10
2023-05-06T11:09:55.237Z,2.20
2023-05-06T11:10:55.204Z,2.30
2023-05-06T11:11:55.187Z,2.50
2023-05-06T11:12:55.229Z,2.70
2023-05-06T11:13:55.172Z,2.30
2023-05-06T11:14:55.141Z,2.30
2023-05-06T11:15:55.144Z,2.30
2023-05-06T11:16:55.176Z,2.80
2023-05-06T11:17:55.203Z,2.40
2023-05-06T11:18:55.103Z,1.70
2023-05-06T11:19:55.089Z,2.00
2023-05-06T11:20:55.092Z,1.90
2023-05-06T11:21:55.052Z,2.00
2023-05-06T11:22:55.070Z,1.70
2023-05-06T11:23:55.075Z,1.90
2023-05-06T11:24:55.015Z,1.80
2023-05-06T11:25:55.001Z,1.90
2023-05-06T11:26:54.991Z,1.80
2023-05-06T11:27:55.002Z,1.60
2023-05-06T11:28:54.975Z,1.80
2023-05-06T11:29:54.950Z,1.80
2023-05-06T11:30:54.999Z,1.70
2023-05-06T11:31:54.919Z,1.70
2023-05-06T11:32:54.933Z,1.90
2023-05-06T11:33:54.903Z,1.90
2023-05-06T11:34:54.904Z,1.80
2023-05-06T11:35:54.867Z,1.80
2023-05-06T11:36:54.857Z,2.00
2023-05-06T11:37:54.851Z,2.10
2023-05-06T11:38:54.832Z,1.70
2023-05-06T11:39:54.846Z,1.90
2023-05-06T11:40:54.788Z,1.80
2023-05-06T11:41:54.786Z,2.10
2023-05-06T11:42:54.762Z,1.60
2023-05-06T11:43:54.779Z,1.80
2023-05-06T11:44:54.759Z,2.10
2023-05-06T11:45:54.774Z,1.90
2023-05-06T11:46:54.735Z,1.70
2023-05-06T11:47:54.837Z,2.00
2023-05-06T11:48:54.685Z,1.70
2023-05-06T11:49:54.694Z,1.60
2023-05-06T11:50:54.655Z,1.80
2023-05-06T11:51:54.669Z,1.70
2023-05-06T11:52:54.632Z,1.70
2023-05-06T11:53:54.613Z,1.80
2023-05-06T11:54:54.654Z,1.80
2023-05-06T11:55:54.593Z,1.70
2023-05-06T11:56:54.587Z,1.70
2023-05-06T11:57:54.593Z,2.00
2023-05-06T11:58:54.564Z,1.70
2023-05-06T11:59:54.570Z,1.50
2023-05-06T12:00:54.541Z,1.70
2023-05-06T12:01:54.516Z,1.50
2023-05-06T12:02:54.643Z,1.70
2023-05-06T12:03:54.628Z,1.70
2023-05-06T12:04:54.544Z,1.80
2023-05-06T12:05:54.474Z,1.70
2023-05-06T12:06:54.438Z,1.70
2023-05-06T12:07:54.433Z,1.70
2023-05-06T12:08:54.417Z,1.40
2023-05-06T12:09:54.435Z,1.30
2023-05-06T12:10:54.430Z,1.40
2023-05-06T12:11:54.378Z,1.30
2023-05-06T12:12:54.379Z,1.70
2023-05-06T12:13:54.966Z,1.80
2023-05-06T12:14:54.358Z,1.50
2023-05-06T12:15:54.361Z,1.70
2023-05-06T12:16:56.048Z,1.40
2023-05-06T12:17:54.327Z,1.40
2023-05-06T12:18:54.292Z,1.40
2023-05-06T12:19:54.279Z,1.50
2023-05-06T12:20:54.258Z,1.60
2023-05-06T12:21:54.245Z,1.40
2023-05-06T12:22:55.476Z,1.60
2023-05-06T12:23:54.238Z,1.50
2023-05-06T12:24:54.227Z,1.90
2023-05-06T12:25:54.202Z,1.40
2023-05-06T12:26:54.200Z,1.30
2023-05-06T12:27:54.947Z,1.40
2023-05-06T12:28:54.174Z,1.30
2023-05-06T12:29:54.171Z,1.40
2023-05-06T12:30:54.119Z,1.80
2023-05-06T12:31:54.156Z,1.40
2023-05-06T12:32:54.193Z,1.30
2023-05-06T12:33:56.089Z,1.40
2023-05-06T12:34:54.104Z,1.80
2023-05-06T12:35:54.060Z,1.80
2023-05-06T12:36:54.092Z,1.90
2023-05-06T12:37:54.052Z,1.50
2023-05-06T12:38:54.035Z,1.50
2023-05-06T12:39:55.679Z,1.40
2023-05-06T12:40:54.013Z,1.20
2023-05-06T12:41:53.997Z,1.60
2023-05-06T12:42:53.969Z,1.60
2023-05-06T12:43:53.969Z,1.70
2023-05-06T12:44:53.953Z,1.60
2023-05-06T12:45:55.076Z,1.90
2023-05-06T12:46:53.909Z,1.90
2023-05-06T12:47:53.938Z,1.40
2023-05-06T12:48:53.900Z,1.70
2023-05-06T12:49:53.889Z,1.20
2023-05-06T12:50:53.904Z,1.30
2023-05-06T12:51:53.854Z,1.30
2023-05-06T12:52:53.845Z,1.30
2023-05-06T12:53:53.853Z,1.20
2023-05-06T12:54:53.813Z,1.60
2023-05-06T12:55:53.807Z,1.30
2023-05-06T12:56:53.806Z,1.40
2023-05-06T12:57:54.609Z,1.20
2023-05-06T12:58:53.773Z,1.60
2023-05-06T12:59:53.787Z,1.40
2023-05-06T13:00:53.777Z,1.60
2023-05-06T13:01:53.727Z,1.50
2023-05-06T13:02:53.806Z,1.70
2023-05-06T13:03:53.693Z,1.60
2023-05-06T13:04:53.695Z,1.40
2023-05-06T13:05:53.684Z,1.40
2023-05-06T13:06:53.667Z,1.20
2023-05-06T13:07:53.661Z,1.50
2023-05-06T13:08:53.624Z,1.50
2023-05-06T13:09:53.652Z,1.60
2023-05-06T13:10:53.608Z,1.40
2023-05-06T13:11:53.592Z,1.50
2023-05-06T13:12:53.635Z,1.90
2023-05-06T13:13:53.577Z,1.50
2023-05-06T13:14:53.548Z,1.40
2023-05-06T13:15:53.555Z,1.50
2023-05-06T13:16:53.578Z,1.60
2023-05-06T13:17:53.649Z,1.80
2023-05-06T13:18:53.505Z,1.30
2023-05-06T13:19:53.496Z,1.50
2023-05-06T13:20:53.502Z,1.30
2023-05-06T13:21:53.470Z,1.40
2023-05-06T13:22:55.054Z,1.50
2023-05-06T13:23:53.438Z,1.20
2023-05-06T13:24:53.420Z,1.40
2023-05-06T13:26:03.737Z,1.20
2023-05-06T13:26:53.415Z,1.30
2023-05-06T13:27:53.377Z,1.00
2023-05-06T13:28:53.365Z,1.30
2023-05-06T13:29:53.363Z,1.30
2023-05-06T13:30:53.371Z,1.20
2023-05-06T13:31:53.340Z,1.20
2023-05-06T13:32:53.436Z,1.20
2023-05-06T13:33:53.310Z,1.50
2023-05-06T13:34:53.305Z,1.40
2023-05-06T13:35:53.302Z,1.60
2023-05-06T13:36:53.273Z,1.50
2023-05-06T13:37:53.281Z,1.60
2023-05-06T13:38:53.267Z,1.40
2023-05-06T13:39:53.234Z,1.50
2023-05-06T13:40:53.224Z,1.50
2023-05-06T13:41:53.208Z,1.10
2023-05-06T13:42:53.184Z,1.10
2023-05-06T13:43:53.171Z,1.30
2023-05-06T13:44:53.163Z,1.40
2023-05-06T13:45:53.217Z,1.40
2023-05-06T13:46:53.246Z,1.50
2023-05-06T13:47:53.253Z,1.50
2023-05-06T13:48:53.125Z,1.40
2023-05-06T13:49:53.142Z,1.20
2023-05-06T13:50:53.114Z,1.40
2023-05-06T13:51:53.085Z,1.50
2023-05-06T13:52:53.085Z,1.40
2023-05-06T13:53:53.047Z,1.40
2023-05-06T13:54:53.023Z,1.60
2023-05-06T13:55:53.056Z,1.30
2023-05-06T13:56:53.009Z,1.70
2023-05-06T13:57:53.016Z,2.30
2023-05-06T13:58:53.030Z,1.50
2023-05-06T13:59:52.988Z,1.30
2023-05-06T14:00:52.953Z,1.20
2023-05-06T14:01:53.036Z,1.40
2023-05-06T14:02:52.947Z,1.10
2023-05-06T14:03:52.950Z,1.10
2023-05-06T14:04:53.003Z,1.70
2023-05-06T14:05:52.923Z,1.60
2023-05-06T14:06:52.919Z,1.20
2023-05-06T14:07:52.872Z,1.40
2023-05-06T14:08:52.846Z,1.40
2023-05-06T14:09:52.844Z,1.30
2023-05-06T14:10:52.856Z,1.50
2023-05-06T14:11:52.833Z,1.50
2023-05-06T14:12:52.872Z,1.40
2023-05-06T14:13:52.780Z,1.40
2023-05-06T14:14:52.763Z,1.30
2023-05-06T14:15:52.792Z,1.40
2023-05-06T14:16:52.833Z,1.40
2023-05-06T14:17:52.857Z,1.60
2023-05-06T14:18:52.778Z,1.80
2023-05-06T14:19:52.729Z,2.10
2023-05-06T14:20:52.738Z,1.50
2023-05-06T14:21:52.704Z,1.30
2023-05-06T14:22:52.918Z,1.20
2023-05-06T14:23:52.666Z,1.30
2023-05-06T14:24:52.673Z,1.10
2023-05-06T14:25:52.683Z,1.30
2023-05-06T14:26:52.680Z,1.40
2023-05-06T14:27:52.617Z,1.40
2023-05-06T14:28:52.610Z,1.60
2023-05-06T14:29:52.587Z,1.40
2023-05-06T14:30:52.591Z,1.30
2023-05-06T14:31:52.604Z,1.50
2023-05-06T14:32:52.590Z,1.60
2023-05-06T14:33:52.528Z,1.40
2023-05-06T14:34:52.513Z,1.30
2023-05-06T14:35:52.518Z,1.30
2023-05-06T14:36:52.509Z,1.30
2023-05-06T14:37:52.524Z,1.20
2023-05-06T14:38:52.461Z,1.00
2023-05-06T14:39:52.464Z,1.10
2023-05-06T14:40:52.443Z,1.00
2023-05-06T14:41:52.435Z,1.20
2023-05-06T14:42:52.445Z,1.30
2023-05-06T14:43:52.410Z,1.20
2023-05-06T14:44:52.398Z,1.10
2023-05-06T14:45:52.435Z,1.80
2023-05-06T14:46:52.357Z,1.00
2023-05-06T14:47:52.437Z,1.20
2023-05-06T14:48:52.342Z,1.40
2023-05-06T14:49:52.321Z,1.00
2023-05-06T14:50:52.313Z,1.40
2023-05-06T14:51:52.297Z,1.20
2023-05-06T14:52:52.284Z,1.10
2023-05-06T14:53:52.276Z,1.10
2023-05-06T14:54:52.278Z,1.00
2023-05-06T14:55:52.268Z,1.50
2023-05-06T14:56:52.234Z,1.40
2023-05-06T14:57:52.228Z,1.30
2023-05-06T14:58:52.237Z,1.50
2023-05-06T14:59:52.184Z,1.80
2023-05-06T15:00:52.221Z,1.40
2023-05-06T15:01:52.162Z,1.70
2023-05-06T15:02:52.182Z,1.40
2023-05-06T15:03:52.137Z,1.30
2023-05-06T15:04:52.110Z,1.20
2023-05-06T15:05:52.164Z,1.10
2023-05-06T15:06:52.096Z,1.10
2023-05-06T15:07:52.082Z,1.00
2023-05-06T15:08:52.070Z,1.10
2023-05-06T15:09:52.089Z,1.10